首页
METAR-TAF:

METAR-TAF

机场 :

马德普拉塔, 阿根廷

纬度: 37-56S, 经度: 057-35W, 海拔: 18米

当前天气观测

该预报发布于1小时和9分钟前的12:00 UTC
风速13节,风向西南,在西转西南之间变化
温度 15°C
湿度 63%
气压 1012 hPa
能见度10公里或以上
少量云层高于2300英尺

METAR: SAZM 181200Z 23013KT 190V250 9999 FEW023 15/08 Q1012

时间: 10:09 (13:09 UTC)

预报

该预报发布于2小时和9分钟前的11:00 UTC
预报有效从18日的 12点(UTC)到 19日的 12点(UTC)
风速10节,风向西南
能见度10公里或以上
散云层高于2000英尺
成为
从 18日的 17点(UTC)到 18日的 19点(UTC)
风速5节,风向南转西南
成为
从 18日的 21点(UTC)到 18日的 23点(UTC)
风速3节,风向多变
成为
从 19日的 01点(UTC)到 19日的 03点(UTC)
风速10节,风向西转西北

TAF: SAZM 181100Z 1812/1912 23010KT 9999 SCT020 TX17/1819Z TN10/1910Z BECMG 1817/1819 20005KT BECMG 1821/1823 VRB03KT BECMG 1901/1903 29010KT

超过4000个机场的气象观测和天气预报(METAR&TAF报告)。

可查询的气象台以黄色和红色小点在地图上表示。

将鼠标移到小点上方,可查看气象台名称。

然后点击查看天气观测和预报。

如需切换地图:点击带黑十字的绿色按钮放大地图;点击带横线的绿色按钮缩小地图;或者点击绿色箭头查看邻近地区的地图。


METAR-TAF: